M I D A S
Marine Information and Data Acquisition System
Tripno 1974 of the Zeeleeuw from 2010-10-18 06:53:57 to 2010-10-18 15:41:18
Back to CruiseResearch ActivitiesStationsMapUnderway DataData graphs

EquipmentUnitsComment
TimeDGPSUTC
LatitudeDGPSDM.mWGS84
LongitudeDGPSDM.mWGS84
HeadingGyrodeg 
SOGDGPSknotsSpeed over ground
COGDGPSdegCourse over ground
DepthEcho soundermeters200 kHz
Missing or incorrect values are displayed as -999
Navigation data collected by the RV Zeeleeuw from 2010-10-18 06:22:17 to 2010-10-18 15:50:19
Time Latitude Longitude Heading SOG COG Depth
2010-10-18 06:23:22 51°13.663 2°55.958 124.4 0.1 36 -999
2010-10-18 06:24:22 51°13.663 2°55.958 125.6 0.1 189 -999
2010-10-18 06:25:22 51°13.664 2°55.96 125.4 -999 331 -999
2010-10-18 06:26:22 51°13.663 2°55.961 125.2 -999 279 -999
2010-10-18 06:27:22 51°13.662 2°55.959 125.6 -999 171 -999
2010-10-18 06:28:22 51°13.662 2°55.959 124.6 -999 202 -999
2010-10-18 06:29:22 51°13.662 2°55.959 125.3 -999 168 -999
2010-10-18 06:30:22 51°13.663 2°55.959 124.4 -999 220 -999
2010-10-18 06:31:22 51°13.663 2°55.96 124.7 -999 40 -999
2010-10-18 06:32:22 51°13.663 2°55.96 124.2 0.1 2 -999
2010-10-18 06:33:22 51°13.663 2°55.96 124.1 -999 220 -999
2010-10-18 06:34:22 51°13.662 2°55.961 124.2 -999 219 -999
2010-10-18 06:35:22 51°13.662 2°55.96 123.9 -999 314 -999
2010-10-18 06:36:22 51°13.662 2°55.961 125.7 -999 177 -999
2010-10-18 06:37:22 51°13.663 2°55.96 125.2 -999 196 -999
2010-10-18 06:38:22 51°13.662 2°55.96 125.5 -999 19 -999
2010-10-18 06:39:22 51°13.663 2°55.96 124.9 0.1 3 -999
2010-10-18 06:40:22 51°13.662 2°55.96 124.5 -999 159 -999
2010-10-18 06:41:22 51°13.662 2°55.96 124.7 0.1 168 -999
2010-10-18 06:42:22 51°13.662 2°55.959 124.7 0.1 203 -999
2010-10-18 06:43:22 51°13.663 2°55.959 124.1 -999 350 -999
2010-10-18 06:44:22 51°13.662 2°55.959 124.2 -999 -999 -999
2010-10-18 06:45:22 51°13.663 2°55.959 124.6 0.1 7 -999
2010-10-18 06:46:22 51°13.663 2°55.96 124.6 0.1 31 -999
2010-10-18 06:47:22 51°13.663 2°55.96 124.6 -999 159 -999
2010-10-18 06:48:22 51°13.663 2°55.959 124.5 -999 185 -999
2010-10-18 06:49:22 51°13.662 2°55.96 124.6 -999 87 8.9
2010-10-18 06:50:20 51°13.662 2°55.96 124.6 -999 170 8.9
2010-10-18 06:51:21 51°13.662 2°55.96 124.6 0.1 207 8.9
2010-10-18 06:52:19 51°13.663 2°55.96 124.2 -999 170 9
2010-10-18 06:53:18 51°13.663 2°55.96 124.4 -999 149 9
2010-10-18 06:54:18 51°13.663 2°55.961 124.5 -999 223 9
2010-10-18 06:55:18 51°13.663 2°55.961 124.8 -999 94 9
2010-10-18 06:56:18 51°13.663 2°55.961 124.5 -999 89 9
2010-10-18 06:57:18 51°13.662 2°55.962 126.9 0.1 122 9
2010-10-18 06:58:18 51°13.662 2°55.961 127.1 -999 5 9.2
2010-10-18 06:59:18 51°13.661 2°55.961 127.2 -999 112 9.1
2010-10-18 07:00:18 51°13.661 2°55.962 122.5 0.1 194 -999
2010-10-18 07:01:18 51°13.66 2°55.961 111.6 0.1 221 9.1
2010-10-18 07:02:22 51°13.677 2°55.898 107.2 4.4 290 -999
2010-10-18 07:03:22 51°13.696 2°55.786 94.8 3.8 281 -999
2010-10-18 07:04:21 51°13.698 2°55.739 62.7 0.4 338 14.4
2010-10-18 07:05:19 51°13.718 2°55.744 7.7 2.1 359 14.4
2010-10-18 07:05:58 51°13.748 2°55.72 323.2 -999 144 12.7
2010-10-18 07:07:18 51°13.748 2°55.72 334.7 -999 144 12.6
2010-10-18 07:08:18 51°13.748 2°55.72 334.8 -999 324 11.6
2010-10-18 07:09:19 51°14.154 2°55.383 331.4 7.8 331 11.8
2010-10-18 07:10:18 51°14.289 2°55.264 330.8 10.5 330 11.4
2010-10-18 07:11:18 51°14.45 2°55.113 328.8 11.7 328 11.6
2010-10-18 07:12:18 51°14.621 2°54.944 325.7 12.3 327 12.6
2010-10-18 07:13:18 51°14.754 2°54.715 286.8 11.4 287 12.4
2010-10-18 07:14:18 51°14.692 2°54.466 219.4 11.1 218 11.3
2010-10-18 07:15:18 51°14.574 2°54.241 230.2 11.3 231 11.1
2010-10-18 07:16:18 51°14.458 2°54.006 229.8 11.4 231 11.2
2010-10-18 07:17:18 51°14.34 2°53.773 229.6 11.3 230 10.8
2010-10-18 07:18:18 51°14.221 2°53.539 229.6 11.4 231 10.9
2010-10-18 07:19:18 51°14.103 2°53.304 231 11.3 234 11.1
2010-10-18 07:20:18 51°13.997 2°53.055 235 11.4 237 11.3
2010-10-18 07:21:18 51°13.891 2°52.804 234.3 11.4 235 11.5
2010-10-18 07:22:18 51°13.791 2°52.546 238.4 11.4 239 11.7
2010-10-18 07:23:18 51°13.702 2°52.297 238.1 8.5 240 11.7
2010-10-18 07:24:18 51°13.645 2°52.175 230.9 4.8 236 11.8
2010-10-18 07:25:18 51°13.61 2°52.041 244.3 6.1 246 12
2010-10-18 07:26:18 51°13.566 2°51.879 249.2 7 252 12
2010-10-18 07:27:18 51°13.525 2°51.704 247.6 6.8 250 12.2
2010-10-18 07:28:18 51°13.501 2°51.57 250.6 4.2 258 12.3
2010-10-18 07:29:18 51°13.479 2°51.491 225.3 2.7 221 12.5
2010-10-18 07:30:18 51°13.431 2°51.486 177.5 4.2 170 12.3
2010-10-18 07:31:18 51°13.358 2°51.489 193 3.7 186 12.5
2010-10-18 07:32:18 51°13.307 2°51.462 211.6 3 209 12.3
2010-10-18 07:33:18 51°13.262 2°51.424 205.8 3 202 12.3
2010-10-18 07:34:18 51°13.212 2°51.408 195.7 3.1 186 11.9
2010-10-18 07:35:18 51°13.163 2°51.396 198.7 2.9 189 11.7
2010-10-18 07:36:18 51°13.115 2°51.381 198.7 2.9 193 11.6
2010-10-18 07:37:18 51°13.067 2°51.368 199 3 188 11.7
2010-10-18 07:38:18 51°13.019 2°51.354 197.6 2.8 189 11.3
2010-10-18 07:39:18 51°12.974 2°51.335 211.1 2.8 203 11.4
2010-10-18 07:40:18 51°12.936 2°51.284 230 3.3 231 11.4
2010-10-18 07:41:18 51°12.903 2°51.207 235.6 3.5 239 11.4
2010-10-18 07:42:18 51°12.865 2°51.135 223.8 3.5 224 11.4
2010-10-18 07:43:18 51°12.819 2°51.075 222.3 3.6 222 11.4
2010-10-18 07:44:18 51°12.776 2°51.008 225.7 3.6 226 11.4
2010-10-18 07:45:18 51°12.739 2°50.939 230.4 3.3 231 11.3
2010-10-18 07:46:18 51°12.709 2°50.867 236 3.3 238 11.4
2010-10-18 07:47:18 51°12.685 2°50.79 240.9 3.2 245 11.4
2010-10-18 07:48:18 51°12.664 2°50.711 241.2 3.2 246 11.3
2010-10-18 07:49:18 51°12.642 2°50.634 240.2 3.2 246 11.4
2010-10-18 07:50:18 51°12.62 2°50.558 239.9 3.2 245 11.2
2010-10-18 07:51:18 51°12.596 2°50.484 236.1 3.1 239 11.4
2010-10-18 07:52:18 51°12.567 2°50.417 233 3.1 236 11.3
2010-10-18 07:53:18 51°12.539 2°50.349 234 3.1 238 11.3
2010-10-18 07:54:18 51°12.51 2°50.281 234.1 3.1 237 11.3
2010-10-18 07:55:18 51°12.481 2°50.215 233.5 3 236 11.3
2010-10-18 07:56:18 51°12.453 2°50.149 234.4 3 237 11.3
2010-10-18 07:57:18 51°12.425 2°50.082 234.4 3 237 11.2
2010-10-18 07:58:18 51°12.397 2°50.016 234 3 233 11.3
2010-10-18 07:59:18 51°12.368 2°49.95 234.3 3 238 11.2
2010-10-18 08:00:18 51°12.34 2°49.883 234.2 3 238 11.3
2010-10-18 08:01:18 51°12.312 2°49.817 234.2 3 236 11.2
2010-10-18 08:02:18 51°12.284 2°49.751 235 3 238 11.3
2010-10-18 08:03:18 51°12.256 2°49.687 233.8 2.9 236 11.3
2010-10-18 08:04:18 51°12.229 2°49.622 234.8 2.9 238 11.2
2010-10-18 08:05:18 51°12.202 2°49.556 234.5 3 239 11.1
2010-10-18 08:06:18 51°12.174 2°49.49 234.3 3 237 11.2
2010-10-18 08:07:18 51°12.162 2°49.414 259.6 3.1 272 11.2
2010-10-18 08:08:18 51°12.173 2°49.33 273.1 3.3 290 11.2
2010-10-18 08:09:18 51°12.206 2°49.254 299.1 3.7 318 11.2
2010-10-18 08:10:18 51°12.265 2°49.209 326.7 4.2 346 11.5
2010-10-18 08:11:18 51°12.338 2°49.21 359.1 4.7 13 11.9
2010-10-18 08:12:18 51°12.405 2°49.266 30.6 4.2 38 12.2
2010-10-18 08:13:18 51°12.452 2°49.344 48.5 3.9 52 12.6
2010-10-18 08:14:18 51°12.485 2°49.421 65.2 3.2 62 12.5
2010-10-18 08:15:18 51°12.505 2°49.489 78.7 2.7 66 12.4
2010-10-18 08:16:18 51°12.52 2°49.548 88.7 2.3 67 12.5
2010-10-18 08:17:18 51°12.534 2°49.601 97.3 2 67 12.3
2010-10-18 08:18:18 51°12.545 2°49.664 99.1 4.3 82 12.3
2010-10-18 08:19:18 51°12.609 2°49.807 42.4 10.6 44 12.3
2010-10-18 08:20:18 51°12.747 2°50.087 55.5 14.3 55 12.4
2010-10-18 08:21:18 51°12.874 2°50.407 60.3 14.3 60 12.5
2010-10-18 08:22:18 51°12.989 2°50.738 60.5 14.4 59 12.3
2010-10-18 08:23:18 51°13.105 2°51.068 59.2 14.2 59 12.4
2010-10-18 08:24:18 51°13.242 2°51.377 51.9 14.2 52 12.3
2010-10-18 08:25:18 51°13.38 2°51.583 13.3 7.7 17 12.6
2010-10-18 08:26:18 51°13.459 2°51.549 294.4 3.8 315 12.9
2010-10-18 08:27:18 51°13.486 2°51.506 275.9 1.2 359 13.1
2010-10-18 08:28:19 51°13.504 2°51.54 277.8 1.9 56 -999
2010-10-18 08:29:20 51°13.521 2°51.582 296.4 1.8 59 13.1
2010-10-18 08:30:18 51°13.536 2°51.621 310.6 1.7 59 12.9
2010-10-18 08:31:18 51°13.552 2°51.66 324.1 1.7 58 12.8
2010-10-18 08:32:18 51°13.568 2°51.7 336.7 1.8 57 12.9
2010-10-18 08:33:18 51°13.585 2°51.739 345.3 1.8 53 12.7
2010-10-18 08:34:18 51°13.603 2°51.777 349.7 1.8 52 13
2010-10-18 08:35:18 51°13.623 2°51.816 348.4 2.1 44 12.7
2010-10-18 08:36:18 51°13.659 2°51.852 6.6 3 30 12.7
2010-10-18 08:37:18 51°13.703 2°51.91 45.9 3.7 50 12.9
2010-10-18 08:38:18 51°13.748 2°52.039 62.7 8.4 61 12.8
2010-10-18 08:39:18 51°13.828 2°52.267 62.7 10.5 62 12.5
2010-10-18 08:40:18 51°13.926 2°52.574 63.9 14.3 63 12.5
2010-10-18 08:41:18 51°14.036 2°52.915 63.2 14.4 62 12.2
2010-10-18 08:42:18 51°14.152 2°53.249 57.9 14.4 58 11.9
2010-10-18 08:43:18 51°14.289 2°53.561 50.8 14.5 53 11.7
2010-10-18 08:44:18 51°14.472 2°53.809 29.8 14.3 32 11.9
2010-10-18 08:45:18 51°14.698 2°53.868 353.1 13.8 356 11.8
2010-10-18 08:46:18 51°14.915 2°53.786 332.7 13.2 338 11.8
2010-10-18 08:47:18 51°15.12 2°53.654 332.6 13.3 339 12.2
2010-10-18 08:48:18 51°15.329 2°53.534 335.5 13.4 341 12.3
2010-10-18 08:49:18 51°15.541 2°53.424 336.2 13.4 342 13.1
2010-10-18 08:50:18 51°15.755 2°53.318 337.5 13.4 342 13.5
2010-10-18 08:51:18 51°15.966 2°53.204 335.9 13.5 341 13.6
2010-10-18 08:52:18 51°16.177 2°53.094 335.8 13.4 342 13.9
2010-10-18 08:53:18 51°16.389 2°52.985 336 13.4 342 13.9
2010-10-18 08:54:18 51°16.603 2°52.88 336.5 13.5 343 13.6
2010-10-18 08:55:18 51°16.815 2°52.771 335.5 13.4 341 11.8
2010-10-18 08:56:18 51°17.028 2°52.658 336.1 13.5 342 12
2010-10-18 08:57:18 51°17.241 2°52.545 335.8 13.5 341 12.2
2010-10-18 08:58:18 51°17.455 2°52.431 335.5 13.5 341 12.5
2010-10-18 08:59:18 51°17.669 2°52.317 336 13.7 341 12
2010-10-18 09:00:18 51°17.881 2°52.199 336.5 13.5 342 13
2010-10-18 09:01:18 51°18.094 2°52.081 336.4 13.5 340 13.4
2010-10-18 09:02:18 51°18.306 2°51.965 336.1 13.4 341 13.3
2010-10-18 09:03:18 51°18.52 2°51.852 335.8 13.5 343 14.2
2010-10-18 09:04:18 51°18.733 2°51.738 336.2 13.5 342 15.6
2010-10-18 09:05:18 51°18.948 2°51.626 336.7 13.6 343 16.4
2010-10-18 09:06:18 51°19.16 2°51.51 335.1 13.3 337 17.4
2010-10-18 09:07:18 51°19.373 2°51.397 336 13.5 345 16.9
2010-10-18 09:08:18 51°19.584 2°51.279 336.6 13.5 343 16.9
2010-10-18 09:09:18 51°19.794 2°51.165 337.6 13.4 342 14.9
2010-10-18 09:10:18 51°20.003 2°51.051 337.1 13.3 343 14.8
2010-10-18 09:11:18 51°20.213 2°50.935 337.1 13.3 341 16.3
2010-10-18 09:12:18 51°20.419 2°50.814 330.6 13.1 336 17.3
2010-10-18 09:13:18 51°20.574 2°50.587 306.8 12.7 313 20.7
2010-10-18 09:14:18 51°20.718 2°50.341 308.4 12.7 315 23.6
2010-10-18 09:15:18 51°20.874 2°50.109 309.2 12.7 316 25
2010-10-18 09:16:18 51°21.013 2°49.857 299.7 12.4 306 25.1
2010-10-18 09:17:18 51°21.127 2°49.579 297.7 12.5 303 24.6
2010-10-18 09:18:18 51°21.251 2°49.308 302.7 12.7 309 23.8
2010-10-18 09:19:18 51°21.385 2°49.046 304.5 12.8 310 23.3
2010-10-18 09:20:18 51°21.552 2°48.841 329.7 13.2 334 24.3
2010-10-18 09:21:18 51°21.768 2°48.763 351.5 13.6 356 25
2010-10-18 09:22:18 51°21.996 2°48.769 358.3 13.8 4 25.4
2010-10-18 09:23:18 51°22.224 2°48.781 358.7 13.8 2 25.7
2010-10-18 09:24:18 51°22.452 2°48.792 357.3 13.8 1 22.9
2010-10-18 09:25:18 51°22.683 2°48.81 358.6 14.1 4 19.5
2010-10-18 09:26:18 51°22.916 2°48.822 0.4 14.1 3 19.9
2010-10-18 09:27:18 51°23.148 2°48.833 358.2 13.9 3 22
2010-10-18 09:28:18 51°23.381 2°48.846 0.5 14.1 5 23.4
2010-10-18 09:29:18 51°23.614 2°48.858 357.7 13.8 359 24.6
2010-10-18 09:30:18 51°23.845 2°48.876 357.7 13.8 3 24.2
2010-10-18 09:31:18 51°24.074 2°48.883 0.1 13.9 2 24
2010-10-18 09:32:18 51°24.304 2°48.904 1 13.8 3 24.6
2010-10-18 09:33:18 51°24.532 2°48.905 356.5 13.8 3 24.2
2010-10-18 09:34:18 51°24.758 2°48.886 351.4 13.5 353 21
2010-10-18 09:35:18 51°24.883 2°48.789 281 5 291 24.8
2010-10-18 09:36:18 51°24.9 2°48.659 272.5 5.4 287 26.4
2010-10-18 09:37:18 51°24.922 2°48.516 267.4 5.4 278 27.8
2010-10-18 09:38:18 51°24.951 2°48.393 280.9 4 301 28.8
2010-10-18 09:39:18 51°24.984 2°48.373 312 1.9 43 29.1
2010-10-18 09:40:18 51°25.008 2°48.408 336.2 2 40 28.7
2010-10-18 09:41:18 51°25.034 2°48.444 332.4 2.1 42 29.3
2010-10-18 09:42:18 51°25.059 2°48.48 324.7 2 42 29.3
2010-10-18 09:43:18 51°25.083 2°48.521 321 2 51 29.3
2010-10-18 09:44:18 51°25.107 2°48.562 323 2.1 49 29
2010-10-18 09:45:18 51°25.129 2°48.604 323.1 2.1 50 28.9
2010-10-18 09:46:18 51°25.152 2°48.646 323.2 2 50 28.7
2010-10-18 09:47:18 51°25.175 2°48.689 322.3 2.1 51 28.5
2010-10-18 09:48:18 51°25.197 2°48.733 324.8 2.2 50 28.1
2010-10-18 09:49:18 51°25.219 2°48.778 327.3 2.2 50 28.2
2010-10-18 09:50:18 51°25.242 2°48.822 329 2.1 49 27.3
2010-10-18 09:51:18 51°25.268 2°48.864 325.8 2.4 25 26.3
2010-10-18 09:52:18 51°25.362 2°48.777 310.7 10.3 320 27.5
2010-10-18 09:53:18 51°25.496 2°48.54 295.9 12.4 301 27.7
2010-10-18 09:54:18 51°25.529 2°48.353 241.2 3.4 246 26.8
2010-10-18 09:55:18 51°25.492 2°48.341 179.2 3.2 160 29.6
2010-10-18 09:56:18 51°25.418 2°48.365 189.2 3.9 177 30.5
2010-10-18 09:57:18 51°25.373 2°48.356 210.1 2.2 196 30.9
2010-10-18 09:58:18 51°25.343 2°48.33 222.4 2.2 218 30.6
2010-10-18 09:59:18 51°25.309 2°48.281 219.8 3.2 216 31
2010-10-18 10:00:18 51°25.262 2°48.229 224.4 3.2 226 31.3
2010-10-18 10:01:18 51°25.24 2°48.167 242.8 2.7 254 31
2010-10-18 10:02:18 51°25.229 2°48.107 232.3 2.2 237 30.8
2010-10-18 10:03:18 51°25.201 2°48.069 221.2 2.2 217 30.9
2010-10-18 10:04:18 51°25.171 2°48.03 226.3 2.3 224 30.5
2010-10-18 10:05:18 51°25.149 2°47.986 231.1 2.1 234 31.1
2010-10-18 10:06:18 51°25.128 2°47.94 230.7 2.1 233 30.6
2010-10-18 10:07:18 51°25.105 2°47.893 231.7 2.2 230 30.4
2010-10-18 10:08:18 51°25.086 2°47.842 236.3 2.2 243 30.4
2010-10-18 10:09:18 51°25.068 2°47.789 235.1 2.3 243 29.6
2010-10-18 10:10:18 51°25.045 2°47.736 231.6 2.5 231 29.5
2010-10-18 10:11:18 51°25.021 2°47.679 233.4 2.7 238 30.4
2010-10-18 10:12:18 51°24.994 2°47.619 232.5 2.8 238 30.7
2010-10-18 10:13:18 51°24.968 2°47.554 232.4 2.9 238 31.6
2010-10-18 10:14:18 51°24.944 2°47.49 232.5 3 238 32.6
2010-10-18 10:15:18 51°24.918 2°47.425 232.7 2.8 237 32.4
2010-10-18 10:16:18 51°24.892 2°47.36 231.5 2.9 236 32.1
2010-10-18 10:17:18 51°24.865 2°47.295 233.1 2.9 238 30.8
2010-10-18 10:18:18 51°24.838 2°47.232 231.7 3 234 32.5
2010-10-18 10:19:18 51°24.81 2°47.167 232.1 2.9 236 30.5
2010-10-18 10:20:18 51°24.782 2°47.1 231.6 3.1 235 31.2
2010-10-18 10:21:18 51°24.754 2°47.035 232.9 3 237 31.2
2010-10-18 10:22:18 51°24.728 2°46.969 232.7 2.9 239 30.3
2010-10-18 10:23:18 51°24.701 2°46.905 232.3 2.8 238 30.4
2010-10-18 10:24:18 51°24.676 2°46.84 232.8 2.9 238 31.3
2010-10-18 10:25:18 51°24.651 2°46.778 224.4 2.7 226 31.4
2010-10-18 10:26:18 51°24.61 2°46.743 206.2 2.9 194 31.3
2010-10-18 10:27:18 51°24.559 2°46.741 189.1 3.3 172 30.6
2010-10-18 10:28:18 51°24.503 2°46.763 183.8 3.3 165 31.8
2010-10-18 10:29:18 51°24.453 2°46.78 192.8 3 176 31.1
2010-10-18 10:30:18 51°24.405 2°46.783 195.1 2.8 178 32.7
2010-10-18 10:31:18 51°24.358 2°46.797 188.7 3 167 32.3
2010-10-18 10:32:18 51°24.312 2°46.811 192.3 2.7 167 30.5
2010-10-18 10:33:18 51°24.267 2°46.815 199.1 2.7 183 28.9
2010-10-18 10:34:18 51°24.226 2°46.804 209.1 2.5 197 29.1
2010-10-18 10:35:18 51°24.19 2°46.778 219.6 2.3 215 29.4
2010-10-18 10:36:18 51°24.167 2°46.734 234.6 2.2 244 30.2
2010-10-18 10:37:18 51°24.165 2°46.677 265 2.3 299 29.4
2010-10-18 10:38:18 51°24.195 2°46.648 288.7 2 350 29.3
2010-10-18 10:39:18 51°24.226 2°46.65 289.5 1.8 12 30
2010-10-18 10:40:18 51°24.255 2°46.666 297.8 2.1 1 28
2010-10-18 10:41:18 51°24.325 2°46.667 -999 6.2 16 28.2
2010-10-18 10:42:18 51°24.471 2°46.786 27.1 11.5 32 30.9
2010-10-18 10:43:18 51°24.655 2°46.963 28.8 13.7 31 30.7
2010-10-18 10:44:18 51°24.844 2°47.175 33.6 13.9 37 31.3
2010-10-18 10:45:18 51°25.023 2°47.41 38.3 14.1 39 29.9
2010-10-18 10:46:18 51°25.203 2°47.647 38.5 14 39 28
2010-10-18 10:47:18 51°25.383 2°47.879 38 13.8 39 28.1
2010-10-18 10:48:18 51°25.562 2°48.111 36.9 13.6 40 25.3
2010-10-18 10:49:18 51°25.743 2°48.342 37.8 14 41 25.2
2010-10-18 10:50:18 51°25.92 2°48.573 37.5 13.6 40 25.5
2010-10-18 10:51:18 51°26.1 2°48.806 36.2 14 39 25
2010-10-18 10:52:18 51°26.282 2°49.031 37.9 13.6 40 24.2
2010-10-18 10:53:18 51°26.461 2°49.264 37.8 14.1 38 23.5
2010-10-18 10:54:18 51°26.641 2°49.491 36.3 13.6 37 21
2010-10-18 10:55:18 51°26.822 2°49.716 37.2 14.1 35 21.3
2010-10-18 10:56:18 51°27.006 2°49.942 37.7 13.9 39 23.3
2010-10-18 10:57:18 51°27.185 2°50.175 37.8 13.7 40 22.9
2010-10-18 10:58:18 51°27.365 2°50.403 38.3 14 38 23.7
2010-10-18 10:59:18 51°27.544 2°50.622 33.3 13.5 36 24.5
2010-10-18 11:00:18 51°27.722 2°50.846 38.1 13.6 42 25.2
2010-10-18 11:01:18 51°27.902 2°51.077 38.5 14.2 38 25.7
2010-10-18 11:02:18 51°28.087 2°51.306 36.3 13.9 40 27
2010-10-18 11:03:18 51°28.26 2°51.546 44.4 13.7 46 27.8
2010-10-18 11:04:18 51°28.411 2°51.828 49.5 14 50 28.8
2010-10-18 11:05:18 51°28.559 2°52.114 50.3 14 48 28.9
2010-10-18 11:06:18 51°28.705 2°52.398 50.2 13.8 49 30
2010-10-18 11:07:18 51°28.855 2°52.673 46.2 13.5 46 28.9
2010-10-18 11:08:18 51°29.003 2°52.953 49.9 14 53 27.6
2010-10-18 11:09:18 51°29.154 2°53.228 49.8 13.8 48 29.5
2010-10-18 11:10:18 51°29.302 2°53.505 50.6 13.5 52 31
2010-10-18 11:11:18 51°29.451 2°53.779 50.3 13.6 48 30.8
2010-10-18 11:12:18 51°29.604 2°54.053 50.4 13.6 52 31.3
2010-10-18 11:13:18 51°29.753 2°54.336 51.5 13.9 51 32.3
2010-10-18 11:14:18 51°29.902 2°54.606 46.5 13.4 50 33.6
2010-10-18 11:15:18 51°30.059 2°54.875 49.1 13.7 50 34.5
2010-10-18 11:16:18 51°30.218 2°55.137 45.3 14.1 41 35.1
2010-10-18 11:17:18 51°30.368 2°55.413 49.9 13.8 49 35.5
2010-10-18 11:18:18 51°30.519 2°55.69 50.7 13.8 50 35.5
2010-10-18 11:19:18 51°30.673 2°55.965 46.2 14.1 44 35.5
2010-10-18 11:20:18 51°30.828 2°56.247 50 14.1 46 35.1
2010-10-18 11:21:18 51°30.984 2°56.533 49.1 14.1 48 34.3
2010-10-18 11:22:18 51°31.134 2°56.809 49 13.6 45 33
2010-10-18 11:23:18 51°31.288 2°57.088 49.7 14 51 34.1
2010-10-18 11:24:18 51°31.438 2°57.368 50.4 14 49 35.5
2010-10-18 11:25:18 51°31.592 2°57.651 49.4 14.3 49 34.3
2010-10-18 11:26:18 51°31.75 2°57.934 48.1 14.2 46 35.9
2010-10-18 11:27:18 51°31.907 2°58.203 47.7 13.7 46 37.4
2010-10-18 11:28:18 51°32.065 2°58.464 42.5 13.7 43 37
2010-10-18 11:29:18 51°32.222 2°58.728 48.9 13.7 50 34.3
2010-10-18 11:30:18 51°32.37 2°59.011 52.4 13.8 49 34.3
2010-10-18 11:31:18 51°32.52 2°59.285 50.4 13.8 49 36
2010-10-18 11:32:18 51°32.682 2°59.544 40.6 13.7 41 33.7
2010-10-18 11:33:18 51°32.859 2°59.769 36.2 13.6 36 34.2
2010-10-18 11:34:18 51°33.053 2°59.947 25.5 13.7 21 34.4
2010-10-18 11:35:18 51°33.258 3°0.118 26.3 13.6 28 32.2
2010-10-18 11:36:18 51°33.469 3°0.254 18.5 13.7 21 22
2010-10-18 11:37:18 51°33.687 3°0.362 19.5 13.6 15 12.8
2010-10-18 11:38:18 51°33.908 3°0.455 17.5 13.9 19 14.5
2010-10-18 11:39:18 51°34.126 3°0.566 18.8 13.7 15 14.7
2010-10-18 11:40:18 51°34.342 3°0.526 342 12.1 344 16.8
2010-10-18 11:41:18 51°34.478 3°0.438 327.2 7.2 335 19.8
2010-10-18 11:42:18 51°34.555 3°0.373 310.7 3.8 335 20.4
2010-10-18 11:43:18 51°34.598 3°0.345 299.7 2.1 351 21.7
2010-10-18 11:44:18 51°34.626 3°0.359 306.9 1.8 24 21.9
2010-10-18 11:45:18 51°34.653 3°0.382 316.5 1.9 28 21.1
2010-10-18 11:46:18 51°34.678 3°0.411 326.5 1.8 37 20.6
2010-10-18 11:47:18 51°34.702 3°0.443 334.4 2 41 22.3
2010-10-18 11:48:18 51°34.725 3°0.475 339.3 1.8 41 23
2010-10-18 11:49:18 51°34.748 3°0.504 340.9 1.9 39 21
2010-10-18 11:50:18 51°34.773 3°0.533 336.1 1.8 35 22.4
2010-10-18 11:51:18 51°34.797 3°0.562 333.3 1.7 33 23.5
2010-10-18 11:52:18 51°34.842 3°0.576 353.6 4.2 10 23.2
2010-10-18 11:53:18 51°34.904 3°0.648 67.4 4.8 61 22.9
2010-10-18 11:54:18 51°34.903 3°0.752 139.8 3.4 119 19.1
2010-10-18 11:55:18 51°34.845 3°0.804 167.6 6.6 160 19.1
2010-10-18 11:56:18 51°34.704 3°0.845 180.2 10.8 181 19.9
2010-10-18 11:57:18 51°34.513 3°0.833 182.1 11.6 179 17.5
2010-10-18 11:58:18 51°34.322 3°0.84 179.2 11.4 178 15.8
2010-10-18 11:59:18 51°34.133 3°0.852 179.3 11.5 177 15.7
2010-10-18 12:00:18 51°33.945 3°0.867 179.7 11.1 178 15.1
2010-10-18 12:01:18 51°33.759 3°0.885 177.9 11.3 174 18.3
2010-10-18 12:02:18 51°33.568 3°0.903 180.4 11.7 178 33.2
2010-10-18 12:03:18 51°33.373 3°0.916 180.6 11.8 177 34.8
2010-10-18 12:04:18 51°33.178 3°0.934 180 11.7 178 34.6
2010-10-18 12:05:18 51°32.984 3°0.951 179.2 11.6 178 34.1
2010-10-18 12:06:18 51°32.789 3°0.963 179.3 11.8 181 31.7
2010-10-18 12:07:18 51°32.592 3°0.977 179.4 11.9 179 26.8
2010-10-18 12:08:18 51°32.398 3°0.992 179 11.7 176 25.4
2010-10-18 12:09:18 51°32.203 3°1.003 180.1 11.7 176 24.4
2010-10-18 12:10:18 51°32.008 3°1.014 180 11.8 177 26.3
2010-10-18 12:11:18 51°31.811 3°1.025 178.4 11.9 176 26.8
2010-10-18 12:12:18 51°31.615 3°1.036 179.2 11.9 177 26.9
2010-10-18 12:13:18 51°31.417 3°1.043 180.1 11.9 181 27.7
2010-10-18 12:14:18 51°31.219 3°1.05 179.8 12 181 28.5
2010-10-18 12:15:18 51°31.02 3°1.056 179.1 11.9 181 28.6
2010-10-18 12:16:18 51°30.825 3°1.101 169.6 11.8 167 27.3
2010-10-18 12:17:18 51°30.644 3°1.247 153.2 12.2 152 28.1
2010-10-18 12:18:18 51°30.472 3°1.423 150.8 12.4 149 28.5
2010-10-18 12:19:18 51°30.295 3°1.585 154.4 12.4 152 29
2010-10-18 12:20:18 51°30.114 3°1.742 153.4 12.4 151 29
2010-10-18 12:21:18 51°29.934 3°1.9 154.6 12.2 147 27.5
2010-10-18 12:22:18 51°29.756 3°2.058 154 12.3 151 26.2
2010-10-18 12:23:18 51°29.574 3°2.208 151.3 12.4 148 25.3
2010-10-18 12:24:18 51°29.392 3°2.354 154.9 12.2 158 23.8
2010-10-18 12:25:18 51°29.211 3°2.497 155.4 12 159 23.2
2010-10-18 12:26:18 51°29.032 3°2.649 154.7 12.3 154 23
2010-10-18 12:27:18 51°28.851 3°2.798 154.2 12.4 148 23.9
2010-10-18 12:28:18 51°28.671 3°2.948 155.3 12.4 152 23.9
2010-10-18 12:29:18 51°28.489 3°3.094 154.5 12.3 155 23.7
2010-10-18 12:30:18 51°28.313 3°3.258 145.7 12.2 146 23.4
2010-10-18 12:31:18 51°28.156 3°3.476 136.9 12.5 134 21.7
2010-10-18 12:32:18 51°28.003 3°3.706 137.3 12.5 136 19.9
2010-10-18 12:33:18 51°27.846 3°3.924 138.4 12.5 139 18.4
2010-10-18 12:34:18 51°27.691 3°4.141 140.7 12.3 134 16.3
2010-10-18 12:35:18 51°27.534 3°4.351 142.8 12.3 140 14.9
2010-10-18 12:36:18 51°27.371 3°4.546 141.9 12.3 143 13.3
2010-10-18 12:37:18 51°27.209 3°4.742 142.5 12.3 143 14
2010-10-18 12:38:18 51°27.046 3°4.942 143.3 12.2 139 14.6
2010-10-18 12:39:18 51°26.885 3°5.143 142.2 12.3 143 13.7
2010-10-18 12:40:18 51°26.724 3°5.341 143.3 12.1 146 12.7
2010-10-18 12:41:18 51°26.565 3°5.541 143.1 12.2 140 12.2
2010-10-18 12:42:18 51°26.407 3°5.741 142.2 12 146 11.5
2010-10-18 12:43:18 51°26.247 3°5.939 141.9 12.2 146 12
2010-10-18 12:44:18 51°26.087 3°6.137 143.2 12.1 142 11.5
2010-10-18 12:45:18 51°25.93 3°6.336 142.5 12 146 11
2010-10-18 12:46:18 51°25.771 3°6.532 143.3 12 144 10.4
2010-10-18 12:47:18 51°25.61 3°6.726 142.9 12.1 144 10.8
2010-10-18 12:48:18 51°25.449 3°6.92 141.8 12.2 143 10.8
2010-10-18 12:49:18 51°25.289 3°7.115 142.4 12.2 143 10.2
2010-10-18 12:50:18 51°25.128 3°7.307 141.1 12.1 141 9.6
2010-10-18 12:51:18 51°24.972 3°7.508 137.4 12.1 135 10.1
2010-10-18 12:52:18 51°24.824 3°7.725 135.1 12.2 133 10.8
2010-10-18 12:53:18 51°24.689 3°7.966 129.8 12.2 130 11
2010-10-18 12:54:18 51°24.554 3°8.207 129.6 12 135 11.2
2010-10-18 12:55:18 51°24.425 3°8.455 126.4 12.2 130 12.2
2010-10-18 12:56:18 51°24.292 3°8.706 128.2 12.4 129 15.2
2010-10-18 12:57:18 51°24.16 3°8.964 128.4 12.5 128 18.9
2010-10-18 12:58:18 51°24.05 3°9.246 113.5 12.6 113 18.9
2010-10-18 12:59:18 51°23.997 3°9.572 101 12.7 101 18.2
2010-10-18 13:00:18 51°23.953 3°9.902 102 12.9 102 17.3
2010-10-18 13:01:18 51°23.941 3°10.246 87.5 13 86 16.6
2010-10-18 13:02:18 51°23.956 3°10.59 83.9 13.1 84 16.7
2010-10-18 13:03:18 51°23.982 3°10.936 82.8 13 84 16.5
2010-10-18 13:04:18 51°24.009 3°11.274 80.2 13 82 15.8
2010-10-18 13:05:18 51°24.051 3°11.609 77.7 12.7 79 16.6
2010-10-18 13:06:18 51°24.094 3°11.938 78 12.6 78 16.9
2010-10-18 13:07:18 51°24.13 3°12.272 82.2 12.6 85 16.5
2010-10-18 13:08:18 51°24.151 3°12.603 83.5 12.7 83 16.3
2010-10-18 13:09:18 51°24.17 3°12.933 85 12.3 85 15.6
2010-10-18 13:10:18 51°24.188 3°13.257 84.1 12 84 15.1
2010-10-18 13:11:18 51°24.274 3°13.545 57.3 10.8 53 15.4
2010-10-18 13:12:18 51°24.312 3°13.698 102.9 3.9 105 17
2010-10-18 13:13:18 51°24.285 3°13.752 146 2 152 16.2
2010-10-18 13:14:18 51°24.249 3°13.755 182.1 2.2 196 15.4
2010-10-18 13:15:18 51°24.194 3°13.697 209.6 5.6 219 14.3
2010-10-18 13:16:18 51°24.136 3°13.598 225.4 4.2 235 13.5
2010-10-18 13:17:18 51°24.112 3°13.515 237.9 3.1 253 13.3
2010-10-18 13:18:18 51°24.099 3°13.44 238.6 2.8 252 13.4
2010-10-18 13:19:18 51°24.093 3°13.368 262.5 2.8 274 13.3
2010-10-18 13:20:18 51°24.102 3°13.293 264.4 2.9 280 13.5
2010-10-18 13:21:18 51°24.105 3°13.22 251.3 2.6 268 13.8
2010-10-18 13:22:18 51°24.1 3°13.146 242.9 3.1 259 14
2010-10-18 13:23:18 51°24.084 3°13.062 237.5 3.4 249 13.8
2010-10-18 13:24:18 51°24.064 3°12.975 238.3 3.5 250 13.9
2010-10-18 13:25:18 51°24.044 3°12.885 238.8 3.6 250 13.8
2010-10-18 13:26:18 51°24.027 3°12.791 248.1 3.7 257 13.9
2010-10-18 13:27:18 51°24.016 3°12.691 250.6 3.6 261 14.1
2010-10-18 13:28:18 51°24.005 3°12.594 253.9 3.8 261 13.6
2010-10-18 13:29:18 51°23.998 3°12.492 256.5 3.9 264 13.5
2010-10-18 13:30:18 51°23.99 3°12.393 256.4 3.8 264 13.5
2010-10-18 13:31:18 51°23.982 3°12.295 256.2 3.8 263 13.5
2010-10-18 13:32:18 51°23.976 3°12.196 255.1 3.8 264 13.9
2010-10-18 13:33:18 51°23.968 3°12.098 254 3.7 262 13.9
2010-10-18 13:34:18 51°23.962 3°11.998 259.4 3.9 268 14.3
2010-10-18 13:35:18 51°23.958 3°11.895 259.2 3.8 266 14.8
2010-10-18 13:36:18 51°23.955 3°11.795 262.1 3.7 270 14.7
2010-10-18 13:37:18 51°23.957 3°11.695 265.3 3.7 273 14.9
2010-10-18 13:38:18 51°23.96 3°11.595 266.4 3.7 275 15.2
2010-10-18 13:39:18 51°23.963 3°11.496 263.1 3.7 270 15.7
2010-10-18 13:40:18 51°23.96 3°11.4 259.3 3.6 268 15.7
2010-10-18 13:41:18 51°23.958 3°11.304 258.8 3.6 266 15.7
2010-10-18 13:42:18 51°23.954 3°11.205 258.9 3.7 267 15.9
2010-10-18 13:43:18 51°23.95 3°11.109 259.1 3.6 268 15.8
2010-10-18 13:44:18 51°23.946 3°11.014 255.9 3.5 264 15.9
2010-10-18 13:45:18 51°23.938 3°10.921 253.8 3.6 262 16
2010-10-18 13:46:18 51°23.923 3°10.831 241.1 3.5 250 15.6
2010-10-18 13:47:18 51°23.897 3°10.749 233.8 3.5 240 15.5
2010-10-18 13:48:18 51°23.87 3°10.669 235.9 3.2 241 15.1
2010-10-18 13:49:18 51°23.84 3°10.598 221.3 3.2 228 14.8
2010-10-18 13:50:18 51°23.797 3°10.556 193.2 3 198 14.3
2010-10-18 13:51:18 51°23.747 3°10.555 169.8 3.1 169 14
2010-10-18 13:52:18 51°23.695 3°10.568 173.1 3.2 178 14
2010-10-18 13:53:18 51°23.643 3°10.559 189.3 3.1 196 14.1
2010-10-18 13:54:18 51°23.597 3°10.527 199.7 3.1 205 13.9
2010-10-18 13:55:18 51°23.554 3°10.483 214.7 3.1 224 13.7
2010-10-18 13:56:18 51°23.523 3°10.411 235.2 3.5 243 13.7
2010-10-18 13:57:18 51°23.508 3°10.315 261.4 3.5 269 13.8
2010-10-18 13:58:18 51°23.525 3°10.237 297 2.6 303 13.7
2010-10-18 13:59:18 51°23.547 3°10.19 299.2 1.9 306 13.8
2010-10-18 14:00:18 51°23.565 3°10.154 298.4 1.7 310 13.9
2010-10-18 14:01:18 51°23.588 3°10.114 315.2 2.9 317 14
2010-10-18 14:02:18 51°23.648 3°10.1 27.5 4.3 25 13.8
2010-10-18 14:03:18 51°23.655 3°10.197 122.8 4.4 132 14.1
2010-10-18 14:04:18 51°23.544 3°10.307 143.9 11.1 148 13.4
2010-10-18 14:05:18 51°23.388 3°10.506 126.6 12.2 127 13.1
2010-10-18 14:06:18 51°23.262 3°10.763 131 12.4 134 12.6
2010-10-18 14:07:18 51°23.129 3°11.02 127.7 12.5 128 12.4
2010-10-18 14:08:18 51°22.992 3°11.27 131.5 12.7 136 12.5
2010-10-18 14:09:18 51°22.825 3°11.471 143.1 12.9 149 13.2
2010-10-18 14:10:18 51°22.641 3°11.579 164 11.2 170 14.3
2010-10-18 14:11:18 51°22.496 3°11.558 204.8 5.9 213 15.1
2010-10-18 14:12:18 51°22.461 3°11.458 262.5 3.7 266 15.6
2010-10-18 14:13:18 51°22.462 3°11.422 311.4 0.4 248 15.5
2010-10-18 14:14:21 51°22.462 3°11.408 333.2 0.5 276 15.4
2010-10-18 14:15:18 51°22.463 3°11.397 339.5 0.4 278 15.3
2010-10-18 14:16:18 51°22.466 3°11.387 339.3 0.4 303 15.2
2010-10-18 14:17:18 51°22.468 3°11.379 340.8 0.4 287 15.3
2010-10-18 14:18:18 51°22.47 3°11.37 340.4 0.4 283 15.4
2010-10-18 14:19:18 51°22.472 3°11.361 342 0.3 282 15.5
2010-10-18 14:20:18 51°22.472 3°11.353 341.1 0.3 289 15.2
2010-10-18 14:21:18 51°22.479 3°11.342 338.2 2 328 15.5
2010-10-18 14:22:18 51°22.549 3°11.254 322.3 8.3 319 15.2
2010-10-18 14:23:18 51°22.674 3°11.073 309 11.2 304 14.3
2010-10-18 14:24:18 51°22.701 3°10.758 267.1 13.3 271 14.1
2010-10-18 14:25:18 51°22.687 3°10.399 259.1 13.6 262 14.6
2010-10-18 14:26:18 51°22.628 3°10.055 246.6 13.3 249 17.2
2010-10-18 14:27:18 51°22.54 3°9.73 242.3 13.5 246 13
2010-10-18 14:28:18 51°22.457 3°9.396 247.5 13.5 251 12.9
2010-10-18 14:29:18 51°22.389 3°9.053 248.8 13.5 252 12.4
2010-10-18 14:30:18 51°22.324 3°8.709 248.8 13.5 253 12.3
2010-10-18 14:31:18 51°22.261 3°8.363 249 13.6 253 12.2
2010-10-18 14:32:18 51°22.196 3°8.016 249 13.5 253 11.8
2010-10-18 14:33:18 51°22.131 3°7.67 249.3 13.5 253 11.7
2010-10-18 14:34:18 51°22.065 3°7.326 249.1 13.5 251 11.8
2010-10-18 14:35:18 51°21.989 3°6.991 242.3 13.3 246 11.5
2010-10-18 14:36:18 51°21.897 3°6.668 241.5 13.3 246 11
2010-10-18 14:37:18 51°21.806 3°6.347 241.9 13.3 246 11
2010-10-18 14:38:18 51°21.716 3°6.025 241.9 13.3 246 10.8
2010-10-18 14:39:18 51°21.625 3°5.703 241.9 13.3 245 10.3
2010-10-18 14:40:18 51°21.535 3°5.382 242.1 13.2 245 10.3
2010-10-18 14:41:18 51°21.444 3°5.061 241.8 13.2 245 10.3
2010-10-18 14:42:18 51°21.357 3°4.738 244.8 13.2 248 10.2
2010-10-18 14:43:18 51°21.277 3°4.408 245.4 13.3 249 10.1
2010-10-18 14:44:18 51°21.196 3°4.079 245.4 13.3 248 9.9
2010-10-18 14:45:18 51°21.114 3°3.751 245.9 13.3 249 9.9
2010-10-18 14:46:18 51°21.033 3°3.423 245.2 13.2 248 9.4
2010-10-18 14:47:18 51°20.954 3°3.098 245.6 13.2 249 9.2
2010-10-18 14:48:18 51°20.874 3°2.774 245.4 13.2 248 8.9
2010-10-18 14:49:18 51°20.793 3°2.447 245.6 13.2 249 9.3
2010-10-18 14:50:18 51°20.712 3°2.122 244.9 13.1 248 9
2010-10-18 14:51:18 51°20.631 3°1.798 245.1 13.1 248 8.9
2010-10-18 14:52:18 51°20.55 3°1.476 244.8 13.1 249 9.2
2010-10-18 14:53:18 51°20.469 3°1.153 245.4 13.1 248 9.1
2010-10-18 14:54:18 51°20.388 3°0.83 244.9 13.1 247 9.3
2010-10-18 14:55:18 51°20.307 3°0.509 245.2 13.1 248 9.1
2010-10-18 14:56:18 51°20.225 3°0.189 244.7 12.9 247 8.9
2010-10-18 14:57:18 51°20.145 2°59.869 245.6 13 248 9.2
2010-10-18 14:58:18 51°20.066 2°59.551 245.4 12.8 248 9.2
2010-10-18 14:59:18 51°19.984 2°59.233 244.7 12.9 248 9.1
2010-10-18 15:00:18 51°19.902 2°58.914 245.2 13 247 9.5
2010-10-18 15:01:18 51°19.821 2°58.594 245.4 12.9 248 9.5
2010-10-18 15:02:18 51°19.738 2°58.276 244.7 13.1 247 9.5
2010-10-18 15:03:18 51°19.656 2°57.956 245.4 12.9 247 9.7
2010-10-18 15:04:18 51°19.573 2°57.638 245.7 13.1 247 9.7
2010-10-18 15:05:18 51°19.49 2°57.318 245.2 13.1 248 9.9
2010-10-18 15:06:18 51°19.406 2°56.998 245.7 13.1 247 9.7
2010-10-18 15:07:18 51°19.321 2°56.679 245.4 13 247 10.1
2010-10-18 15:08:18 51°19.235 2°56.358 245 13.1 247 9.8
2010-10-18 15:09:18 51°19.149 2°56.035 245.6 13.2 247 10.1
2010-10-18 15:10:18 51°19.063 2°55.713 245.5 13.2 247 10.2
2010-10-18 15:11:18 51°18.975 2°55.389 245.4 13.2 247 10.2
2010-10-18 15:12:18 51°18.887 2°55.065 245.5 13.3 247 10.3
2010-10-18 15:13:18 51°18.799 2°54.743 245.5 13.2 247 10.4
2010-10-18 15:14:18 51°18.713 2°54.421 245.5 13.2 247 10.4
2010-10-18 15:15:18 51°18.626 2°54.101 245.3 13.1 247 10.5
2010-10-18 15:16:18 51°18.54 2°53.782 245.4 13 247 10.4
2010-10-18 15:17:18 51°18.454 2°53.467 244.9 12.9 246 10.5
2010-10-18 15:18:18 51°18.369 2°53.154 245.3 13 247 10.4
2010-10-18 15:19:18 51°18.279 2°52.842 241 13 241 10.4
2010-10-18 15:20:18 51°18.152 2°52.568 227.1 12.9 228 10
2010-10-18 15:21:18 51°17.993 2°52.338 216.8 12.8 218 9.7
2010-10-18 15:22:18 51°17.803 2°52.196 185.3 12.7 186 10.4
2010-10-18 15:23:18 51°17.593 2°52.226 168.5 12.7 170 10.4
2010-10-18 15:24:18 51°17.387 2°52.308 159.5 12.7 160 9.7
2010-10-18 15:25:18 51°17.19 2°52.431 153.5 12.6 154 9.7
2010-10-18 15:26:18 51°17.004 2°52.59 147.4 13 150 9.2
2010-10-18 15:27:18 51°16.815 2°52.737 150.8 12.7 156 9
2010-10-18 15:28:18 51°16.617 2°52.858 159.9 12.7 160 10.6
2010-10-18 15:29:18 51°16.417 2°52.973 159.3 12.7 162 10.9
2010-10-18 15:30:18 51°16.219 2°53.093 153.1 12.6 152 11
2010-10-18 15:31:18 51°16.035 2°53.261 144.8 12.9 146 10.9
2010-10-18 15:32:18 51°15.865 2°53.459 137.9 12.5 140 10.6
2010-10-18 15:33:18 51°15.705 2°53.675 135 12.7 142 10.2
2010-10-18 15:34:18 51°15.537 2°53.877 140.6 12.6 143 9.9
2010-10-18 15:35:18 51°15.373 2°54.082 138.1 12.6 144 9.5
2010-10-18 15:36:18 51°15.207 2°54.288 138.7 12.6 142 9.2
2010-10-18 15:37:18 51°15.036 2°54.483 141.7 12.6 145 9
2010-10-18 15:38:18 51°14.86 2°54.676 143.1 12.6 146 10.7
2010-10-18 15:39:18 51°14.682 2°54.857 143.7 12.7 148 10.7
2010-10-18 15:40:18 51°14.507 2°55.043 141.3 12.7 144 10.1
2010-10-18 15:41:18 51°14.345 2°55.23 146 10.9 148 9.5
2010-10-18 15:42:18 51°14.196 2°55.362 151.9 9.7 155 9.6
2010-10-18 15:43:19 51°14.06 2°55.464 152.3 8.3 155 9.3
2010-10-18 15:44:18 51°13.948 2°55.546 154.4 6.9 155 10.3
2010-10-18 15:45:18 51°13.845 2°55.622 153 6.7 154 11
2010-10-18 15:46:18 51°13.762 2°55.715 134.4 5.4 135 9.6
2010-10-18 15:47:18 51°13.71 2°55.822 125.6 4.8 125 10.5
2010-10-18 15:48:18 51°13.672 2°55.922 116.9 3.8 116 7.1
2010-10-18 15:49:18 51°13.661 2°55.96 119.9 0.2 277 7.2
2010-10-18 15:50:18 51°13.661 2°55.96 126.5 0.4 63 7.2